createdAt,value
2022-12-01T00:01:59.349Z,99839.50
2022-12-01T00:04:25.951Z,99831.69
2022-12-01T00:06:52.626Z,99833.28
2022-12-01T00:09:20.652Z,99831.69
2022-12-01T00:11:47.469Z,99833.84
2022-12-01T00:14:14.054Z,99841.13
2022-12-01T00:16:40.652Z,99838.69
2022-12-01T00:19:07.439Z,99834.69
2022-12-01T00:21:34.022Z,99835.75
2022-12-01T00:24:00.550Z,99834.94
2022-12-01T00:26:28.688Z,99836.03
2022-12-01T00:28:56.664Z,99833.59
2022-12-01T00:31:24.109Z,99835.47
2022-12-01T00:33:50.954Z,99840.88
2022-12-01T00:36:17.535Z,99841.97
2022-12-01T00:38:44.083Z,99830.34
2022-12-01T00:41:10.955Z,99841.41
2022-12-01T00:43:38.934Z,99846.31
2022-12-01T00:46:05.700Z,99843.88
2022-12-01T00:48:32.392Z,99847.91
2022-12-01T00:50:59.069Z,99846.03
2022-12-01T00:53:25.635Z,99843.59
2022-12-01T00:55:52.237Z,99843.06
2022-12-01T00:58:18.812Z,99852.25
2022-12-01T01:00:46.703Z,99847.38
2022-12-01T01:03:13.471Z,99851.44
2022-12-01T01:05:42.158Z,99852.25
2022-12-01T01:08:09.779Z,99857.13
2022-12-01T01:10:38.096Z,99853.88
2022-12-01T01:13:05.068Z,99858.47
2022-12-01T01:15:31.567Z,99862.22
2022-12-01T01:17:59.651Z,99866.00
2022-12-01T01:20:26.369Z,99856.03
2022-12-01T01:22:53.096Z,99854.13
2022-12-01T01:25:19.630Z,99861.69
2022-12-01T01:27:46.203Z,99862.50
2022-12-01T01:30:15.490Z,99871.97
2022-12-01T01:32:42.104Z,99866.84
2022-12-01T01:35:10.257Z,99864.94
2022-12-01T01:37:36.902Z,99855.50
2022-12-01T01:40:04.334Z,99859.00
2022-12-01T01:42:30.860Z,99868.72
2022-12-01T01:44:58.610Z,99870.06
2022-12-01T01:47:27.927Z,99867.38
2022-12-01T01:49:57.202Z,99865.75
2022-12-01T01:52:25.387Z,99871.41
2022-12-01T01:54:55.538Z,99875.47
2022-12-01T01:57:26.733Z,99867.91
2022-12-01T01:59:58.050Z,99873.59
2022-12-01T02:02:24.670Z,99864.97
2022-12-01T02:04:56.834Z,99872.25
2022-12-01T02:07:24.798Z,99877.09
2022-12-01T02:09:52.669Z,99871.69
2022-12-01T02:12:34.296Z,99869.25
2022-12-01T02:15:12.947Z,99871.97
2022-12-01T02:17:47.745Z,99869.81
2022-12-01T02:20:45.458Z,99874.41
2022-12-01T02:23:52.854Z,99866.84
2022-12-01T02:26:36.290Z,99869.00
2022-12-01T02:29:45.581Z,99864.16
2022-12-01T02:32:21.890Z,99862.53
2022-12-01T02:34:57.494Z,99862.78
2022-12-01T02:37:31.813Z,99864.16
2022-12-01T02:40:05.839Z,99860.66
2022-12-01T02:42:39.574Z,99864.16
2022-12-01T02:45:13.415Z,99868.75
2022-12-01T02:47:43.749Z,99864.44
2022-12-01T02:50:11.687Z,99867.94
2022-12-01T02:52:40.042Z,99867.94
2022-12-01T02:55:07.176Z,99870.88
2022-12-01T02:57:33.717Z,99866.31
2022-12-01T03:00:00.993Z,99865.50
2022-12-01T03:02:35.432Z,99872.50
2022-12-01T03:05:07.970Z,99872.78
2022-12-01T03:07:45.847Z,99868.19
2022-12-01T03:10:21.525Z,99871.19
2022-12-01T03:13:00.302Z,99870.91
2022-12-01T03:15:34.002Z,99866.59
2022-12-01T03:18:09.399Z,99866.03
2022-12-01T03:20:42.555Z,99857.94
2022-12-01T03:23:13.402Z,99858.22
2022-12-01T03:25:44.024Z,99845.84
2022-12-01T03:28:21.304Z,99853.94
2022-12-01T03:30:52.555Z,99857.69
2022-12-01T03:33:25.345Z,99850.69
2022-12-01T03:35:58.331Z,99857.41
2022-12-01T03:38:26.793Z,99851.47
2022-12-01T03:40:58.137Z,99854.44
2022-12-01T03:43:28.107Z,99844.47
2022-12-01T03:45:58.661Z,99853.63
2022-12-01T03:48:26.780Z,99853.09
2022-12-01T03:51:01.733Z,99849.88
2022-12-01T03:53:38.008Z,99856.34
2022-12-01T03:56:07.309Z,99860.63
2022-12-01T03:58:37.920Z,99857.38
2022-12-01T04:01:05.428Z,99857.38
2022-12-01T04:03:32.012Z,99867.66
2022-12-01T04:06:00.588Z,99860.91
2022-12-01T04:08:27.453Z,99858.19
2022-12-01T04:10:53.934Z,99864.38
2022-12-01T04:13:20.496Z,99861.94
2022-12-01T04:15:47.080Z,99865.44
2022-12-01T04:18:13.683Z,99859.25
2022-12-01T04:20:40.234Z,99864.66
2022-12-01T04:23:08.108Z,99871.13
2022-12-01T04:25:34.597Z,99863.56
2022-12-01T04:28:01.160Z,99869.22
2022-12-01T04:30:27.694Z,99861.16
2022-12-01T04:32:54.262Z,99864.09
2022-12-01T04:35:20.954Z,99858.16
2022-12-01T04:37:47.445Z,99860.59
2022-12-01T04:40:15.642Z,99865.47
2022-12-01T04:42:42.190Z,99863.03
2022-12-01T04:45:10.035Z,99856.28
2022-12-01T04:47:36.724Z,99861.41
2022-12-01T04:50:03.553Z,99872.72
2022-12-01T04:52:35.009Z,99862.47
2022-12-01T04:55:02.496Z,99867.31
2022-12-01T04:57:30.425Z,99871.91
2022-12-01T04:59:57.083Z,99867.84
2022-12-01T05:02:23.705Z,99872.69
2022-12-01T05:04:50.244Z,99876.22
2022-12-01T05:07:16.897Z,99880.22
2022-12-01T05:09:43.438Z,99876.97
2022-12-01T05:12:09.984Z,99880.50
2022-12-01T05:14:37.867Z,99884.25
2022-12-01T05:17:04.433Z,99892.06
2022-12-01T05:19:30.974Z,99891.53
2022-12-01T05:21:57.662Z,99888.28
2022-12-01T05:24:24.356Z,99885.06
2022-12-01T05:26:51.093Z,99884.50
2022-12-01T05:29:17.881Z,99890.97
2022-12-01T05:31:46.675Z,99893.91
2022-12-01T05:34:13.721Z,99887.97
2022-12-01T05:36:40.285Z,99891.78
2022-12-01T05:39:07.025Z,99890.97
2022-12-01T05:41:33.596Z,99901.44
2022-12-01T05:44:00.194Z,99891.72
2022-12-01T05:46:26.830Z,99899.00
2022-12-01T05:48:54.811Z,99899.00
2022-12-01T05:51:21.542Z,99902.22
2022-12-01T05:53:48.129Z,99906.53
2022-12-01T05:56:14.866Z,99900.63
2022-12-01T05:58:41.434Z,99908.69
2022-12-01T06:01:08.185Z,99908.69
2022-12-01T06:03:34.896Z,99908.94
2022-12-01T06:06:02.848Z,99911.91
2022-12-01T06:08:29.565Z,99915.66
2022-12-01T06:10:56.265Z,99911.91
2022-12-01T06:13:22.848Z,99918.59
2022-12-01T06:15:56.994Z,99914.28
2022-12-01T06:18:24.321Z,99920.75
2022-12-01T06:20:51.110Z,99918.06
2022-12-01T06:23:19.050Z,99919.66
2022-12-01T06:25:45.586Z,99919.41
2022-12-01T06:28:12.158Z,99920.22
2022-12-01T06:30:38.751Z,99924.22
2022-12-01T06:33:05.603Z,99920.44
2022-12-01T06:35:32.329Z,99920.72
2022-12-01T06:37:59.116Z,99926.88
2022-12-01T06:40:28.166Z,99921.50
2022-12-01T06:42:54.834Z,99932.25
2022-12-01T06:45:21.340Z,99939.00
2022-12-01T06:47:48.107Z,99932.00
2022-12-01T06:50:14.866Z,99941.13
2022-12-01T06:52:41.410Z,99941.13
2022-12-01T06:55:08.949Z,99951.34
2022-12-01T06:57:37.048Z,99944.59
2022-12-01T07:00:04.750Z,99948.09
2022-12-01T07:02:31.719Z,99954.81
2022-12-01T07:04:58.453Z,99946.75
2022-12-01T07:07:25.035Z,99954.53
2022-12-01T07:09:51.979Z,99957.72
2022-12-01T07:12:18.614Z,99956.66
2022-12-01T07:14:46.695Z,99967.66
2022-12-01T07:17:13.197Z,99967.66
2022-12-01T07:19:39.778Z,99967.94
2022-12-01T07:22:06.285Z,99978.16
2022-12-01T07:24:32.829Z,99973.28
2022-12-01T07:26:59.458Z,99969.78
2022-12-01T07:29:25.992Z,99974.09
2022-12-01T07:31:53.891Z,99978.66
2022-12-01T07:34:20.484Z,99982.16
2022-12-01T07:36:47.044Z,99977.84
2022-12-01T07:39:13.573Z,99978.38
2022-12-01T07:41:40.077Z,99988.31
2022-12-01T07:44:07.129Z,99996.94
2022-12-01T07:46:33.729Z,99992.91
2022-12-01T07:49:05.081Z,99991.00
2022-12-01T07:51:31.727Z,99987.25
2022-12-01T07:54:02.299Z,99991.53
2022-12-01T07:56:29.153Z,99988.84
2022-12-01T07:58:55.768Z,99992.09
2022-12-01T08:01:23.841Z,99988.34
2022-12-01T08:03:51.915Z,99992.66
2022-12-01T08:06:20.319Z,99984.34
2022-12-01T08:08:47.402Z,99997.78
2022-12-01T08:11:16.114Z,99993.22
2022-12-01T08:13:43.652Z,100000.22
2022-12-01T08:16:12.997Z,99997.00
2022-12-01T08:18:40.853Z,99998.38
2022-12-01T08:21:09.194Z,100009.44
2022-12-01T08:23:37.193Z,100001.38
2022-12-01T08:26:05.755Z,100014.81
2022-12-01T08:28:35.184Z,100015.34
2022-12-01T08:31:07.619Z,100016.69
2022-12-01T08:33:34.171Z,100020.22
2022-12-01T08:36:02.007Z,100021.84
2022-12-01T08:38:28.548Z,100019.16
2022-12-01T08:41:00.201Z,100021.84
2022-12-01T08:43:56.002Z,100030.47
2022-12-01T08:46:14.126Z,100023.47
2022-12-01T08:48:40.904Z,100029.13
2022-12-01T08:51:09.591Z,100029.09
2022-12-01T08:53:42.564Z,100030.16
2022-12-01T08:56:16.512Z,100033.91
2022-12-01T08:58:43.350Z,100029.84
2022-12-01T09:01:12.855Z,100034.38
2022-12-01T09:03:39.978Z,100034.66
2022-12-01T09:06:08.759Z,100029.75
2022-12-01T09:08:36.458Z,100030.00
2022-12-01T09:11:04.778Z,100032.19
2022-12-01T09:13:34.424Z,100041.59
2022-12-01T09:16:04.383Z,100037.84
2022-12-01T09:18:31.208Z,100040.03
2022-12-01T09:20:58.658Z,100037.59
2022-12-01T09:23:26.246Z,100033.28
2022-12-01T09:25:53.694Z,100038.41
2022-12-01T09:28:20.378Z,100038.66
2022-12-01T09:30:48.271Z,100040.84
2022-12-01T09:33:15.037Z,100027.16
2022-12-01T09:35:41.600Z,100035.78
2022-12-01T09:38:08.139Z,100036.88
2022-12-01T09:40:37.165Z,100041.53
2022-12-01T09:43:05.842Z,100030.00
2022-12-01T09:45:36.657Z,100037.81
2022-12-01T09:48:06.513Z,100024.38
2022-12-01T09:50:34.237Z,100029.53
2022-12-01T09:53:06.249Z,100027.13
2022-12-01T09:55:34.188Z,100031.97
2022-12-01T09:58:03.378Z,100023.94
2022-12-01T10:00:32.841Z,100021.00
2022-12-01T10:03:10.172Z,100013.75
2022-12-01T10:06:10.215Z,100013.50
2022-12-01T10:08:34.810Z,100018.94
2022-12-01T10:11:08.405Z,100010.84
2022-12-01T10:13:35.002Z,100009.00
2022-12-01T10:16:09.591Z,100008.47
2022-12-01T10:18:49.579Z,100009.84
2022-12-01T10:21:28.118Z,100005.53
2022-12-01T10:24:09.550Z,99999.06
2022-12-01T10:26:49.623Z,100002.28
2022-12-01T10:29:26.697Z,100004.97
2022-12-01T10:31:54.721Z,100004.44
2022-12-01T10:34:25.116Z,100000.66
2022-12-01T10:36:51.713Z,100003.59
2022-12-01T10:39:22.541Z,99994.19
2022-12-01T10:41:50.031Z,99989.81
2022-12-01T10:44:18.334Z,99985.81
2022-12-01T10:46:49.290Z,99987.13
2022-12-01T10:49:17.398Z,99996.34
2022-12-01T10:51:52.581Z,99978.84
2022-12-01T10:54:20.816Z,99992.56
2022-12-01T10:56:49.014Z,99992.81
2022-12-01T10:59:26.850Z,99976.41
2022-12-01T11:01:54.485Z,99986.38
2022-12-01T11:04:40.192Z,99982.06
2022-12-01T11:07:15.886Z,99990.94
2022-12-01T11:09:46.050Z,99984.22
2022-12-01T11:12:16.589Z,99980.97
2022-12-01T11:14:45.617Z,99980.47
2022-12-01T11:17:25.078Z,99976.16
2022-12-01T11:19:51.927Z,99977.25
2022-12-01T11:22:23.237Z,99978.06
2022-12-01T11:25:01.168Z,99973.75
2022-12-01T11:27:30.533Z,99972.66
2022-12-01T11:29:59.990Z,99975.09
2022-12-01T11:32:29.037Z,99969.94
2022-12-01T11:34:58.666Z,99965.63
2022-12-01T11:37:36.514Z,99969.41
2022-12-01T11:40:13.463Z,99960.00
2022-12-01T11:42:40.708Z,99955.72
2022-12-01T11:45:23.687Z,99954.63
2022-12-01T11:48:02.751Z,99963.22
2022-12-01T11:50:32.549Z,99962.13
2022-12-01T11:53:01.295Z,99959.19
2022-12-01T11:55:29.251Z,99960.25
2022-12-01T11:58:02.751Z,99958.63
2022-12-01T12:00:33.876Z,99960.00
2022-12-01T12:03:18.586Z,99962.44
2022-12-01T12:09:11.343Z,99944.91
2022-12-01T12:11:45.016Z,99946.78
2022-12-01T12:14:31.430Z,99945.97
2022-12-01T12:17:15.008Z,99948.97
2022-12-01T12:20:09.806Z,99955.72
2022-12-01T12:22:46.900Z,99961.09
2022-12-01T12:25:27.574Z,99964.31
2022-12-01T12:28:13.426Z,99954.09
2022-12-01T12:30:46.861Z,99952.75
2022-12-01T12:33:48.865Z,99949.25
2022-12-01T12:36:27.443Z,99945.22
2022-12-01T12:39:05.808Z,99950.34
2022-12-01T12:41:38.682Z,99949.28
2022-12-01T12:44:33.811Z,99941.16
2022-12-01T12:47:14.521Z,99940.88
2022-12-01T12:49:47.590Z,99944.13
2022-12-01T12:52:18.071Z,99946.56
2022-12-01T12:54:50.719Z,99933.91
2022-12-01T12:57:26.183Z,99937.41
2022-12-01T12:59:57.508Z,99935.78
2022-12-01T13:02:31.728Z,99938.72
2022-12-01T13:05:04.722Z,99936.59
2022-12-01T13:07:39.247Z,99940.38
2022-12-01T13:10:16.127Z,99942.81
2022-12-01T13:12:53.645Z,99934.75
2022-12-01T13:15:21.887Z,99933.94
2022-12-01T13:17:51.287Z,99931.00
2022-12-01T13:20:22.053Z,99930.72
2022-12-01T13:22:50.116Z,99936.38
2022-12-01T13:25:26.969Z,99929.09
2022-12-01T13:27:56.961Z,99923.72
2022-12-01T13:30:26.937Z,99921.03
2022-12-01T13:32:59.672Z,99929.13
2022-12-01T13:35:29.385Z,99915.38
2022-12-01T13:38:12.245Z,99920.50
2022-12-01T13:40:39.315Z,99926.41
2022-12-01T13:43:17.400Z,99914.00
2022-12-01T13:45:44.137Z,99917.53
2022-12-01T13:48:28.335Z,99912.13
2022-12-01T13:50:58.813Z,99924.28
2022-12-01T13:53:28.723Z,99909.19
2022-12-01T13:56:00.839Z,99910.81
2022-12-01T13:58:44.825Z,99911.03
2022-12-01T14:01:43.406Z,99909.41
2022-12-01T14:04:31.816Z,99912.94
2022-12-01T14:07:33.377Z,99899.19
2022-12-01T14:10:25.599Z,99894.88
2022-12-01T14:12:54.782Z,99893.25
2022-12-01T14:15:30.376Z,99890.56
2022-12-01T14:18:03.834Z,99890.31
2022-12-01T14:20:33.923Z,99893.81
2022-12-01T14:23:17.103Z,99890.31
2022-12-01T14:25:58.401Z,99898.09
2022-12-01T14:28:58.177Z,99892.47
2022-12-01T14:32:05.854Z,99901.59
2022-12-01T14:34:33.884Z,99899.16
2022-12-01T14:37:05.905Z,99900.53
2022-12-01T14:39:34.733Z,99905.09
2022-12-01T14:42:03.964Z,99902.66
2022-12-01T14:44:36.246Z,99907.25
2022-12-01T14:47:12.462Z,99902.66
2022-12-01T14:49:43.583Z,99904.25
2022-12-01T14:52:19.151Z,99909.91
2022-12-01T14:54:49.615Z,99906.66
2022-12-01T14:57:21.808Z,99916.13
2022-12-01T15:00:02.202Z,99912.63
2022-12-01T15:02:30.705Z,99907.47
2022-12-01T15:05:09.441Z,99910.19
2022-12-01T15:07:38.121Z,99906.38
2022-12-01T15:10:05.985Z,99913.13
2022-12-01T15:12:32.939Z,99910.16
2022-12-01T15:14:59.550Z,99909.03
2022-12-01T15:17:30.945Z,99903.13
2022-12-01T15:19:57.874Z,99903.91
2022-12-01T15:22:29.270Z,99909.03
2022-12-01T15:25:04.897Z,99908.47
2022-12-01T15:27:32.760Z,99911.69
2022-12-01T15:30:01.290Z,99912.75
2022-12-01T15:32:30.798Z,99909.50
2022-12-01T15:34:59.068Z,99914.34
2022-12-01T15:37:27.748Z,99910.84
2022-12-01T15:40:10.080Z,99917.56
2022-12-01T15:42:44.744Z,99917.84
2022-12-01T15:45:18.946Z,99915.94
2022-12-01T15:47:48.698Z,99919.72
2022-12-01T15:50:27.579Z,99928.31
2022-12-01T15:52:54.428Z,99927.75
2022-12-01T15:55:25.648Z,99919.66
2022-12-01T15:57:52.562Z,99931.50
2022-12-01T16:00:20.007Z,99931.25
2022-12-01T16:02:52.306Z,99924.22
2022-12-01T16:05:22.455Z,99927.19
2022-12-01T16:10:37.169Z,99918.81
2022-12-01T16:13:35.199Z,99912.91
2022-12-01T16:16:19.291Z,99912.09
2022-12-01T16:18:55.091Z,99912.09
2022-12-01T16:21:22.097Z,99901.59
2022-12-01T16:23:49.021Z,99900.47
2022-12-01T16:26:15.775Z,99899.94
2022-12-01T16:28:42.347Z,99903.16
2022-12-01T16:31:18.600Z,99897.50
2022-12-01T16:33:45.771Z,99906.41
2022-12-01T16:36:13.659Z,99899.66
2022-12-01T16:38:40.506Z,99904.47
2022-12-01T16:41:15.699Z,99901.78
2022-12-01T16:43:59.119Z,99911.72
2022-12-01T16:46:29.046Z,99906.09
2022-12-01T16:48:55.649Z,99909.03
2022-12-01T16:51:30.046Z,99910.91
2022-12-01T16:54:09.341Z,99921.16
2022-12-01T16:56:36.134Z,99923.84
2022-12-01T16:59:02.784Z,99924.13
2022-12-01T17:01:29.662Z,99927.88
2022-12-01T17:03:56.658Z,99922.22
2022-12-01T17:06:24.517Z,99918.72
2022-12-01T17:08:51.313Z,99928.66
2022-12-01T17:11:17.991Z,99910.66
2022-12-01T17:13:44.556Z,99914.66
2022-12-01T17:16:16.756Z,99917.91
2022-12-01T17:18:44.835Z,99917.34
2022-12-01T17:21:11.634Z,99908.72
2022-12-01T17:23:39.720Z,99914.09
2022-12-01T17:26:08.893Z,99918.66
2022-12-01T17:28:35.814Z,99922.72
2022-12-01T17:31:03.724Z,99918.94
2022-12-01T17:33:31.865Z,99908.16
2022-12-01T17:36:03.676Z,99914.66
2022-12-01T17:38:30.350Z,99918.13
2022-12-01T17:41:05.731Z,99924.84
2022-12-01T17:43:33.166Z,99925.66
2022-12-01T17:46:00.206Z,99928.59
2022-12-01T17:48:26.953Z,99927.78
2022-12-01T17:50:53.513Z,99922.66
2022-12-01T17:53:20.125Z,99928.84
2022-12-01T17:55:46.700Z,99929.91
2022-12-01T17:58:14.668Z,99927.47
2022-12-01T18:00:41.237Z,99932.03
2022-12-01T18:03:07.997Z,99923.16
2022-12-01T18:05:34.820Z,99930.41
2022-12-01T18:08:01.425Z,99921.53
2022-12-01T18:10:28.117Z,99935.47
2022-12-01T18:12:54.639Z,99940.56
2022-12-01T18:15:22.630Z,99934.94
2022-12-01T18:17:49.204Z,99939.75
2022-12-01T18:20:19.190Z,99938.94
2022-12-01T18:22:46.021Z,99949.16
2022-12-01T18:25:13.050Z,99942.16
2022-12-01T18:27:39.596Z,99943.50
2022-12-01T18:30:07.460Z,99942.94
2022-12-01T18:32:35.312Z,99938.31
2022-12-01T18:35:02.022Z,99942.59
2022-12-01T18:37:28.624Z,99935.59
2022-12-01T18:39:55.563Z,99944.16
2022-12-01T18:42:22.163Z,99939.31
2022-12-01T18:44:49.033Z,99944.94
2022-12-01T18:47:15.757Z,99945.19
2022-12-01T18:49:43.842Z,99946.50
2022-12-01T18:52:10.485Z,99944.31
2022-12-01T18:54:37.182Z,99940.53
2022-12-01T18:57:03.835Z,99931.66
2022-12-01T18:59:30.397Z,99941.03
2022-12-01T19:01:57.059Z,99935.09
2022-12-01T19:04:23.711Z,99932.13
2022-12-01T19:06:51.679Z,99929.44
2022-12-01T19:09:18.339Z,99931.81
2022-12-01T19:11:44.971Z,99926.97
2022-12-01T19:14:15.637Z,99927.78
2022-12-01T19:16:42.735Z,99926.91
2022-12-01T19:19:10.038Z,99916.41
2022-12-01T19:21:36.565Z,99925.81
2022-12-01T19:24:05.007Z,99919.06
2022-12-01T19:26:31.555Z,99924.13
2022-12-01T19:28:58.341Z,99928.69
2022-12-01T19:31:25.001Z,99923.31
2022-12-01T19:33:52.308Z,99928.16
2022-12-01T19:36:22.286Z,99928.41
2022-12-01T19:38:50.689Z,99923.56
2022-12-01T19:41:21.188Z,99925.72
2022-12-01T19:43:49.814Z,99924.91
2022-12-01T19:46:20.543Z,99927.84
2022-12-01T19:48:53.576Z,99921.09
2022-12-01T19:51:24.375Z,99921.91
2022-12-01T19:53:51.544Z,99919.22
2022-12-01T19:56:19.658Z,99922.97
2022-12-01T19:58:46.411Z,99917.03
2022-12-01T20:01:14.642Z,99917.31
2022-12-01T20:03:42.232Z,99912.69
2022-12-01T20:06:10.465Z,99912.91
2022-12-01T20:08:37.141Z,99916.66
2022-12-01T20:11:04.561Z,99922.31
2022-12-01T20:13:33.413Z,99923.13
2022-12-01T20:16:04.177Z,99919.06
2022-12-01T20:18:30.920Z,99921.19
2022-12-01T20:21:05.747Z,99917.44
2022-12-01T20:23:32.533Z,99923.06
2022-12-01T20:26:00.356Z,99921.19
2022-12-01T20:28:27.006Z,99918.19
2022-12-01T20:30:57.924Z,99917.38
2022-12-01T20:33:25.530Z,99918.19
2022-12-01T20:35:52.475Z,99921.69
2022-12-01T20:38:24.281Z,99910.41
2022-12-01T20:40:53.784Z,99913.09
2022-12-01T20:43:20.382Z,99920.88
2022-12-01T20:45:47.073Z,99912.81
2022-12-01T20:48:15.487Z,99912.00
2022-12-01T20:50:42.076Z,99913.09
2022-12-01T20:53:09.660Z,99912.53
2022-12-01T20:55:36.564Z,99918.47
2022-12-01T20:58:04.049Z,99916.03
2022-12-01T21:00:31.185Z,99910.91
2022-12-01T21:02:57.853Z,99903.91
2022-12-01T21:05:26.722Z,99912.53
2022-12-01T21:07:54.093Z,99911.72
2022-12-01T21:10:21.170Z,99909.03
2022-12-01T21:12:51.863Z,99917.31
2022-12-01T21:15:25.091Z,99912.78
2022-12-01T21:17:56.177Z,99916.50
2022-12-01T21:20:30.320Z,99909.28
2022-12-01T21:23:01.591Z,99907.41
2022-12-01T21:25:28.255Z,99909.84
2022-12-01T21:27:57.862Z,99914.66
2022-12-01T21:30:24.814Z,99912.72
2022-12-01T21:32:52.808Z,99905.22
2022-12-01T21:35:22.731Z,99913.25
2022-12-01T21:37:54.602Z,99913.50
2022-12-01T21:40:23.144Z,99910.81
2022-12-01T21:42:50.538Z,99910.03
2022-12-01T21:45:22.072Z,99914.59
2022-12-01T21:47:48.664Z,99919.69
2022-12-01T21:50:19.453Z,99912.97
2022-12-01T21:52:46.798Z,99914.84
2022-12-01T21:55:35.726Z,99909.47
2022-12-01T21:58:02.410Z,99912.72
2022-12-01T22:00:31.103Z,99906.53
2022-12-01T22:03:05.470Z,99904.69
2022-12-01T22:05:37.634Z,99899.81
2022-12-01T22:08:15.716Z,99897.13
2022-12-01T22:11:01.499Z,99899.81
2022-12-01T22:13:38.324Z,99903.28
2022-12-01T22:16:05.196Z,99890.94
2022-12-01T22:18:36.292Z,99895.25
2022-12-01T22:21:33.105Z,99904.34
2022-12-01T22:24:14.407Z,99900.63
2022-12-01T22:26:45.992Z,99898.75
2022-12-01T22:29:24.690Z,99889.06
2022-12-01T22:31:51.933Z,99888.50
2022-12-01T22:34:20.093Z,99896.56
2022-12-01T22:36:46.855Z,99890.94
2022-12-01T22:39:28.818Z,99899.00
2022-12-01T22:42:00.198Z,99890.38
2022-12-01T22:44:30.083Z,99893.88
2022-12-01T22:47:00.412Z,99889.31
2022-12-01T22:49:26.998Z,99892.47
2022-12-01T22:51:59.721Z,99890.84
2022-12-01T22:54:34.800Z,99889.81
2022-12-01T22:57:28.602Z,99882.53
2022-12-01T22:59:55.534Z,99882.53
2022-12-01T23:02:24.468Z,99881.72
2022-12-01T23:04:54.982Z,99880.66
2022-12-01T23:07:31.153Z,99886.03
2022-12-01T23:10:05.334Z,99875.53
2022-12-01T23:12:34.855Z,99874.72
2022-12-01T23:15:22.379Z,99873.09
2022-12-01T23:17:49.620Z,99867.16
2022-12-01T23:20:30.705Z,99869.03
2022-12-01T23:23:00.402Z,99857.25
2022-12-01T23:25:27.931Z,99862.06
2022-12-01T23:27:59.213Z,99847.56
2022-12-01T23:30:26.488Z,99853.22
2022-12-01T23:33:02.786Z,99854.03
2022-12-01T23:35:29.592Z,99852.41
2022-12-01T23:37:56.241Z,99850.78
2022-12-01T23:40:29.959Z,99841.09
2022-12-01T23:43:10.007Z,99836.53
2022-12-01T23:45:36.955Z,99835.97
2022-12-01T23:48:10.824Z,99837.03
2022-12-01T23:50:37.799Z,99832.47
2022-12-01T23:53:04.471Z,99825.50
2022-12-01T23:55:31.658Z,99829.81
2022-12-01T23:57:59.618Z,99829.00
